Coeburn, VA (24230)

2:22 AM EDT on April 26, 2017 (GMT -0400)
Rock Bar Road | | Change Station

Elev 2579 ft 36.96 °N, 82.57 °W | Updated 14 seconds ago

Partly Cloudy
Partly Cloudy
53.1 °F
Feels Like 53.1 °F
N
0.0
Wind Variable Wind from SW

Today
High -- | Low -- °F
--% Chance of Precip.
Yesterday
High -- | Low -- °F
Precip. -- in
Pressure 29.80 in
Visibility 2.0 miles
Clouds Scattered Clouds 300 ft
Dew Point 52 °F
Humidity 98%
Rainfall 0.00 in
Snow Depth Not available.
6:41 AM 8:14 PM
Waning Crescent, 0% visible
METAR KVJI 260555Z AUTO 00000KT 2SM BR SCT003 12/12 A2980 RMK AO2 T01230122 10182 20123 402000122
Pressure 29.80 in
Visibility 2.0 miles
Clouds Scattered Clouds 300 ft
Dew Point 52 °F
Humidity 98%
Rainfall 0.00 in
Snow Depth Not available.
6:41 AM 8:14 PM
Waning Crescent, 0% visible
METAR KVJI 260555Z AUTO 00000KT 2SM BR SCT003 12/12 A2980 RMK AO2 T01230122 10182 20123 402000122

Get Severe Weather Alerts

Thanks for signing up!

Be on the lookout for a verification email in your inbox.

You'll start receiving the daily forecast at 8 AM.

×

10-Day Weather Forecast

Almanac

Astronomy

Apr. 26, 2017 Rise Set
Actual Time
Civil Twilight
Nautical Twilight
Astronomical Twilight
Moon
Length of Visible Light
Length of Day
Tomorrow will be .
, % of the Moon is Illuminated

Today's Extremes

State Highs State Lows

Community

WunderPhotos

WunderBlog® & News

Nearby

Air Quality

  Air Quality AQ Index Pollutant
Not available.

Snow Depth

Station Depth Elevation

Earthquake Activity

City Distance Mag. Time & Date
Minimum magnitude displayed is 2.5.

Coastal Water Temperatures

Place Temperature

Stations

Nearby Weather Stations

Station Location Temp. Windchill Dew Point Humidity Wind Precip. Elev Updated Type
                   

Watches & Warnings

There are currently no watches in effect.